createdAt,value
2019-06-08T00:09:33.942Z,100.00
2019-06-08T00:19:38.011Z,100.00
2019-06-08T00:29:41.962Z,100.00
2019-06-08T00:39:44.530Z,100.00
2019-06-08T00:49:47.952Z,100.00
2019-06-08T00:59:50.533Z,100.00
2019-06-08T01:09:53.210Z,100.00
2019-06-08T01:19:58.270Z,100.00
2019-06-08T01:30:00.886Z,100.00
2019-06-08T01:40:06.713Z,100.00
2019-06-08T01:50:11.032Z,100.00
2019-06-08T02:00:36.995Z,100.00
2019-06-08T02:10:21.463Z,100.00
2019-06-08T02:20:26.309Z,100.00
2019-06-08T02:30:34.197Z,100.00
2019-06-08T02:40:37.734Z,100.00
2019-06-08T02:50:52.569Z,100.00
2019-06-08T03:00:55.937Z,100.00
2019-06-08T03:10:59.536Z,100.00
2019-06-08T03:21:02.889Z,100.00
2019-06-08T03:31:06.840Z,100.00
2019-06-08T03:41:11.823Z,100.00
2019-06-08T03:51:14.407Z,100.00
2019-06-08T04:01:18.219Z,100.00
2019-06-08T04:11:25.454Z,100.00
2019-06-08T04:21:29.438Z,100.00
2019-06-08T04:31:32.005Z,92.41
2019-06-08T04:41:34.674Z,91.37
2019-06-08T04:51:38.852Z,89.05
2019-06-08T05:01:45.048Z,82.32
2019-06-08T05:11:50.004Z,81.98
2019-06-08T05:21:52.856Z,76.76
2019-06-08T05:31:56.650Z,72.32
2019-06-08T05:41:59.206Z,70.74
2019-06-08T05:52:02.233Z,62.03
2019-06-08T06:02:04.818Z,59.42
2019-06-08T06:12:08.969Z,52.14
2019-06-08T06:22:13.133Z,50.21
2019-06-08T06:32:16.161Z,53.30
2019-06-08T06:42:18.837Z,54.79
2019-06-08T06:52:22.462Z,51.54
2019-06-08T07:02:29.952Z,51.45
2019-06-08T07:12:32.520Z,54.72
2019-06-08T07:22:35.080Z,46.47
2019-06-08T07:32:37.654Z,43.77
2019-06-08T07:42:40.214Z,42.70
2019-06-08T07:52:43.462Z,44.36
2019-06-08T08:02:46.075Z,40.85
2019-06-08T08:12:49.658Z,40.70
2019-06-08T08:22:58.841Z,44.40
2019-06-08T08:33:02.731Z,41.57
2019-06-08T08:43:04.997Z,34.43
2019-06-08T08:53:08.319Z,30.73
2019-06-08T09:03:25.262Z,29.75
2019-06-08T09:13:18.664Z,29.08
2019-06-08T09:23:21.927Z,32.12
2019-06-08T09:33:25.026Z,27.93
2019-06-08T09:43:28.935Z,27.53
2019-06-08T09:53:40.550Z,25.45
2019-06-08T10:03:39.368Z,26.07
2019-06-08T10:13:43.418Z,26.04
2019-06-08T10:23:50.135Z,27.21
2019-06-08T10:33:52.696Z,25.74
2019-06-08T10:43:57.027Z,29.01
2019-06-08T10:54:02.100Z,28.15
2019-06-08T11:04:05.818Z,26.87
2019-06-08T11:14:13.760Z,28.24
2019-06-08T11:24:24.825Z,26.80
2019-06-08T11:34:24.368Z,26.84
2019-06-08T11:44:28.755Z,27.84
2019-06-08T11:54:37.261Z,29.11
2019-06-08T12:04:40.050Z,29.18
2019-06-08T12:14:42.621Z,31.67
2019-06-08T12:24:45.178Z,33.69
2019-06-08T12:34:49.286Z,32.21
2019-06-08T12:44:51.843Z,34.62
2019-06-08T12:55:06.107Z,35.10
2019-06-08T13:05:05.196Z,36.61
2019-06-08T13:15:11.215Z,37.33
2019-06-08T13:25:31.600Z,37.55
2019-06-08T13:35:24.137Z,37.13
2019-06-08T13:45:27.862Z,37.31
2019-06-08T13:55:47.706Z,38.49
2019-06-08T14:05:38.866Z,36.61
2019-06-08T14:15:43.967Z,36.79
2019-06-08T14:25:53.874Z,39.19
2019-06-08T14:35:56.789Z,38.42
2019-06-08T14:45:59.422Z,39.57
2019-06-08T14:56:08.370Z,38.55
2019-06-08T15:06:09.095Z,39.70
2019-06-08T15:16:14.129Z,38.38
2019-06-08T15:26:26.155Z,40.29
2019-06-08T15:36:23.685Z,42.05
2019-06-08T15:46:26.579Z,43.03
2019-06-08T15:56:41.762Z,43.07
2019-06-08T16:06:34.413Z,44.09
2019-06-08T16:16:38.788Z,41.83
2019-06-08T16:26:52.718Z,42.54
2019-06-08T16:36:51.954Z,43.22
2019-06-08T16:46:57.489Z,44.63
2019-06-08T16:57:09.968Z,46.08
2019-06-08T17:07:05.362Z,45.40
2019-06-08T17:17:08.516Z,46.56
2019-06-08T17:27:25.915Z,48.27
2019-06-08T17:37:15.670Z,48.83
2019-06-08T17:47:18.807Z,49.90
2019-06-08T17:57:24.046Z,51.11
2019-06-08T18:07:28.014Z,52.37
2019-06-08T18:17:31.340Z,54.26
2019-06-08T18:27:38.065Z,54.56
2019-06-08T18:37:41.307Z,55.14
2019-06-08T18:47:48.467Z,56.50
2019-06-08T18:57:52.114Z,58.32
2019-06-08T19:07:57.219Z,58.66
2019-06-08T19:18:01.759Z,59.19
2019-06-08T19:28:09.000Z,59.71
2019-06-08T19:38:11.546Z,60.39
2019-06-08T19:48:17.375Z,59.85
2019-06-08T19:58:19.888Z,59.28
2019-06-08T20:08:23.252Z,59.72
2019-06-08T20:18:27.925Z,60.25
2019-06-08T20:28:34.465Z,61.57
2019-06-08T20:38:41.983Z,63.24
2019-06-08T20:48:42.456Z,64.62
2019-06-08T20:58:47.908Z,65.88
2019-06-08T21:08:51.559Z,66.21
2019-06-08T21:18:57.984Z,67.00
2019-06-08T21:29:02.981Z,67.89
2019-06-08T21:39:11.332Z,68.11
2019-06-08T21:49:18.226Z,68.09
2019-06-08T21:59:21.052Z,68.78
2019-06-08T22:09:23.621Z,69.53
2019-06-08T22:19:27.795Z,70.81
2019-06-08T22:29:30.346Z,71.15
2019-06-08T22:39:32.903Z,72.27
2019-06-08T22:49:35.476Z,71.90
2019-06-08T22:59:39.391Z,73.47
2019-06-08T23:09:41.944Z,74.29
2019-06-08T23:19:44.504Z,74.02
2019-06-08T23:29:47.550Z,74.44
2019-06-08T23:39:51.064Z,74.74
2019-06-08T23:49:54.354Z,75.60
